createdAt,value
2022-09-23T00:02:11.140Z,101736.75
2022-09-23T00:04:37.868Z,101737.53
2022-09-23T00:07:04.594Z,101729.44
2022-09-23T00:09:32.538Z,101735.19
2022-09-23T00:11:59.053Z,101741.69
2022-09-23T00:14:25.588Z,101735.50
2022-09-23T00:16:52.151Z,101728.56
2022-09-23T00:19:18.651Z,101730.47
2022-09-23T00:21:45.105Z,101721.59
2022-09-23T00:24:11.603Z,101723.50
2022-09-23T00:26:39.425Z,101715.75
2022-09-23T00:29:05.961Z,101719.59
2022-09-23T00:31:32.460Z,101714.97
2022-09-23T00:34:01.220Z,101711.81
2022-09-23T00:36:28.947Z,101709.13
2022-09-23T00:38:55.881Z,101715.66
2022-09-23T00:41:22.889Z,101706.00
2022-09-23T00:43:53.043Z,101702.06
2022-09-23T00:46:23.327Z,101705.56
2022-09-23T00:48:55.641Z,101703.97
2022-09-23T00:51:27.801Z,101704.75
2022-09-23T00:53:54.394Z,101704.75
2022-09-23T00:56:24.173Z,101699.72
2022-09-23T00:58:53.714Z,101688.50
2022-09-23T01:01:20.589Z,101689.25
2022-09-23T01:03:47.576Z,101689.25
2022-09-23T01:06:14.425Z,101689.59
2022-09-23T01:08:42.902Z,101686.13
2022-09-23T01:11:18.707Z,101690.75
2022-09-23T01:13:57.668Z,101699.13
2022-09-23T01:16:30.000Z,101689.16
2022-09-23T01:19:05.826Z,101694.09
2022-09-23T01:21:44.701Z,101683.31
2022-09-23T01:24:48.354Z,101684.41
2022-09-23T01:27:26.491Z,101675.53
2022-09-23T01:30:19.505Z,101675.88
2022-09-23T01:33:13.841Z,101686.66
2022-09-23T01:35:47.818Z,101684.31
2022-09-23T01:38:22.833Z,101674.66
2022-09-23T01:40:55.922Z,101670.06
2022-09-23T01:43:27.830Z,101668.47
2022-09-23T01:45:58.121Z,101670.41
2022-09-23T01:48:32.535Z,101663.44
2022-09-23T01:51:05.480Z,101668.03
2022-09-23T01:53:38.941Z,101668.03
2022-09-23T01:56:13.928Z,101666.47
2022-09-23T01:58:45.032Z,101666.47
2022-09-23T02:01:17.294Z,101666.03
2022-09-23T02:03:49.661Z,101659.50
2022-09-23T02:06:21.230Z,101662.56
2022-09-23T02:08:52.825Z,101656.38
2022-09-23T02:11:19.446Z,101666.38
2022-09-23T02:13:50.301Z,101655.94
2022-09-23T02:16:26.417Z,101653.22
2022-09-23T02:18:58.179Z,101654.03
2022-09-23T02:21:27.537Z,101654.34
2022-09-23T02:24:02.311Z,101648.94
2022-09-23T02:26:33.702Z,101642.00
2022-09-23T02:29:09.293Z,101634.25
2022-09-23T02:31:39.016Z,101632.34
2022-09-23T02:34:18.384Z,101622.72
2022-09-23T02:36:54.315Z,101623.03
2022-09-23T02:39:25.776Z,101618.44
2022-09-23T02:41:58.385Z,101616.84
2022-09-23T02:44:25.740Z,101614.16
2022-09-23T02:46:52.252Z,101616.09
2022-09-23T02:49:23.092Z,101614.50
2022-09-23T02:51:50.871Z,101612.59
2022-09-23T02:54:20.001Z,101601.38
2022-09-23T02:56:46.582Z,101601.38
2022-09-23T02:59:13.242Z,101599.78
2022-09-23T03:01:47.674Z,101600.94
2022-09-23T03:04:21.322Z,101599.78
2022-09-23T03:06:57.795Z,101599.78
2022-09-23T03:09:29.887Z,101599.34
2022-09-23T03:12:05.514Z,101602.03
2022-09-23T03:14:40.987Z,101590.47
2022-09-23T03:17:14.442Z,101595.06
2022-09-23T03:19:47.357Z,101593.53
2022-09-23T03:22:18.365Z,101588.13
2022-09-23T03:24:49.667Z,101589.25
2022-09-23T03:27:23.904Z,101597.34
2022-09-23T03:29:53.675Z,101591.50
2022-09-23T03:32:23.524Z,101588.81
2022-09-23T03:34:53.568Z,101577.25
2022-09-23T03:37:26.319Z,101581.88
2022-09-23T03:39:57.294Z,101587.25
2022-09-23T03:42:26.659Z,101580.28
2022-09-23T03:44:54.873Z,101579.16
2022-09-23T03:47:22.208Z,101582.19
2022-09-23T03:49:49.745Z,101573.00
2022-09-23T03:52:17.210Z,101573.31
2022-09-23T03:54:44.843Z,101570.19
2022-09-23T03:57:12.656Z,101575.56
2022-09-23T03:59:39.306Z,101562.09
2022-09-23T04:02:06.636Z,101562.09
2022-09-23T04:04:33.637Z,101560.88
2022-09-23T04:07:00.359Z,101564.00
2022-09-23T04:09:26.890Z,101563.25
2022-09-23T04:11:54.741Z,101558.97
2022-09-23T04:14:22.337Z,101558.16
2022-09-23T04:16:49.691Z,101556.25
2022-09-23T04:19:16.938Z,101561.66
2022-09-23T04:21:44.620Z,101550.88
2022-09-23T04:24:11.941Z,101560.09
2022-09-23T04:26:39.464Z,101562.78
2022-09-23T04:29:07.632Z,101561.56
2022-09-23T04:31:34.433Z,101551.56
2022-09-23T04:34:00.998Z,101561.56
2022-09-23T04:36:27.657Z,101549.22
2022-09-23T04:38:54.149Z,101548.41
2022-09-23T04:41:20.716Z,101544.94
2022-09-23T04:43:47.254Z,101552.25
2022-09-23T04:46:15.888Z,101552.25
2022-09-23T04:48:43.454Z,101552.25
2022-09-23T04:51:12.260Z,101551.47
2022-09-23T04:53:40.867Z,101551.47
2022-09-23T04:56:10.075Z,101556.06
2022-09-23T04:58:36.592Z,101554.50
2022-09-23T05:01:08.998Z,101552.94
2022-09-23T05:03:37.161Z,101555.63
2022-09-23T05:06:04.024Z,101554.50
2022-09-23T05:08:30.521Z,101547.53
2022-09-23T05:10:57.624Z,101540.56
2022-09-23T05:13:24.178Z,101543.25
2022-09-23T05:15:57.250Z,101543.25
2022-09-23T05:18:23.778Z,101551.34
2022-09-23T05:20:54.126Z,101545.97
2022-09-23T05:23:20.710Z,101537.88
2022-09-23T05:25:47.263Z,101544.41
2022-09-23T05:28:13.875Z,101540.91
2022-09-23T05:30:40.348Z,101540.91
2022-09-23T05:33:06.839Z,101538.56
2022-09-23T05:35:33.292Z,101545.53
2022-09-23T05:38:01.125Z,101550.13
2022-09-23T05:40:27.685Z,101549.34
2022-09-23T05:42:54.222Z,101550.91
2022-09-23T05:45:20.704Z,101555.50
2022-09-23T05:47:47.208Z,101552.03
2022-09-23T05:50:13.724Z,101553.94
2022-09-23T05:52:40.213Z,101556.66
2022-09-23T05:55:08.668Z,101553.94
2022-09-23T05:57:35.145Z,101552.03
2022-09-23T06:00:02.253Z,101546.66
2022-09-23T06:02:28.801Z,101551.25
2022-09-23T06:04:55.328Z,101545.06
2022-09-23T06:07:21.800Z,101556.66
2022-09-23T06:09:48.294Z,101552.38
2022-09-23T06:12:16.129Z,101549.69
2022-09-23T06:14:42.620Z,101557.44
2022-09-23T06:17:09.079Z,101559.00
2022-09-23T06:19:35.619Z,101548.56
2022-09-23T06:22:02.096Z,101552.03
2022-09-23T06:24:31.324Z,101557.44
2022-09-23T06:26:58.299Z,101552.03
2022-09-23T06:29:26.147Z,101548.22
2022-09-23T06:31:52.693Z,101541.72
2022-09-23T06:34:19.730Z,101548.66
2022-09-23T06:36:46.873Z,101542.16
2022-09-23T06:39:14.447Z,101536.75
2022-09-23T06:41:41.137Z,101547.97
2022-09-23T06:44:07.771Z,101551.47
2022-09-23T06:46:35.716Z,101548.41
2022-09-23T06:49:02.266Z,101544.25
2022-09-23T06:51:28.740Z,101546.28
2022-09-23T06:53:55.199Z,101545.13
2022-09-23T06:56:21.765Z,101547.94
2022-09-23T06:58:48.776Z,101540.31
2022-09-23T07:01:17.053Z,101543.44
2022-09-23T07:03:46.308Z,101541.19
2022-09-23T07:06:13.043Z,101551.28
2022-09-23T07:08:43.338Z,101549.03
2022-09-23T07:11:10.429Z,101548.78
2022-09-23T07:13:36.996Z,101548.19
2022-09-23T07:16:03.742Z,101549.84
2022-09-23T07:18:36.173Z,101551.19
2022-09-23T07:21:10.110Z,101551.41
2022-09-23T07:23:36.665Z,101544.63
2022-09-23T07:26:03.517Z,101547.44
2022-09-23T07:28:30.084Z,101550.22
2022-09-23T07:31:00.278Z,101543.78
2022-09-23T07:33:32.267Z,101540.41
2022-09-23T07:35:59.405Z,101543.53
2022-09-23T07:38:27.247Z,101540.94
2022-09-23T07:40:53.763Z,101545.31
2022-09-23T07:43:20.286Z,101547.28
2022-09-23T07:45:46.765Z,101550.88
2022-09-23T07:48:13.284Z,101550.16
2022-09-23T07:50:40.308Z,101550.25
2022-09-23T07:53:06.873Z,101548.44
2022-09-23T07:55:34.960Z,101552.34
2022-09-23T07:58:01.551Z,101555.59
2022-09-23T08:00:28.023Z,101559.56
2022-09-23T08:02:54.567Z,101557.75
2022-09-23T08:05:21.138Z,101560.91
2022-09-23T08:07:47.604Z,101551.00
2022-09-23T08:10:14.177Z,101553.00
2022-09-23T08:12:42.001Z,101553.50
2022-09-23T08:15:09.275Z,101550.47
2022-09-23T08:17:35.765Z,101557.84
2022-09-23T08:20:02.439Z,101557.16
2022-09-23T08:22:28.914Z,101559.91
2022-09-23T08:24:56.679Z,101557.75
2022-09-23T08:27:23.522Z,101557.84
2022-09-23T08:29:51.352Z,101556.38
2022-09-23T08:32:17.806Z,101557.56
2022-09-23T08:34:44.295Z,101553.38
2022-09-23T08:37:10.970Z,101544.56
2022-09-23T08:39:37.478Z,101557.38
2022-09-23T08:42:14.023Z,101549.69
2022-09-23T08:44:47.877Z,101540.91
2022-09-23T08:47:21.108Z,101547.94
2022-09-23T08:49:56.949Z,101556.53
2022-09-23T08:52:31.557Z,101551.59
2022-09-23T08:54:58.075Z,101551.22
2022-09-23T08:57:38.394Z,101559.34
2022-09-23T09:00:06.130Z,101554.72
2022-09-23T09:02:35.961Z,101552.00
2022-09-23T09:05:08.290Z,101549.31
2022-09-23T09:07:38.341Z,101546.59
2022-09-23T09:10:15.045Z,101557.84
2022-09-23T09:12:45.040Z,101550.16
2022-09-23T09:15:14.723Z,101547.88
2022-09-23T09:17:51.308Z,101549.00
2022-09-23T09:20:23.359Z,101539.78
2022-09-23T09:22:55.422Z,101542.47
2022-09-23T09:25:36.192Z,101542.06
2022-09-23T09:28:03.230Z,101544.75
2022-09-23T09:30:30.942Z,101541.69
2022-09-23T09:33:02.166Z,101546.31
2022-09-23T09:35:34.832Z,101540.91
2022-09-23T09:38:01.475Z,101539.00
2022-09-23T09:40:28.033Z,101532.78
2022-09-23T09:42:54.560Z,101535.50
2022-09-23T09:45:33.743Z,101534.38
2022-09-23T09:48:09.014Z,101533.25
2022-09-23T09:50:45.279Z,101526.34
2022-09-23T09:53:19.759Z,101534.09
2022-09-23T09:55:58.860Z,101536.56
2022-09-23T09:58:34.385Z,101527.72
2022-09-23T10:01:01.323Z,101524.72
2022-09-23T10:03:38.751Z,101524.44
2022-09-23T10:06:18.378Z,101519.88
2022-09-23T10:08:57.819Z,101526.16
2022-09-23T10:11:24.322Z,101522.03
2022-09-23T10:14:04.359Z,101516.31
2022-09-23T10:16:33.536Z,101512.97
2022-09-23T10:19:03.109Z,101517.38
2022-09-23T10:21:33.856Z,101515.94
2022-09-23T10:24:02.423Z,101509.84
2022-09-23T10:26:30.829Z,101500.66
2022-09-23T10:28:57.345Z,101496.44
2022-09-23T10:31:25.728Z,101497.69
2022-09-23T10:33:54.018Z,101498.09
2022-09-23T10:36:21.951Z,101496.97
2022-09-23T10:38:52.144Z,101496.97
2022-09-23T10:41:28.603Z,101497.75
2022-09-23T10:44:05.471Z,101498.47
2022-09-23T10:46:36.411Z,101503.09
2022-09-23T10:49:52.129Z,101495.78
2022-09-23T10:52:35.812Z,101495.34
2022-09-23T10:55:16.084Z,101499.16
2022-09-23T10:57:55.430Z,101503.81
2022-09-23T11:00:28.684Z,101501.44
2022-09-23T11:03:07.609Z,101504.56
2022-09-23T11:05:41.220Z,101504.56
2022-09-23T11:08:28.059Z,101503.72
2022-09-23T11:11:12.730Z,101499.50
2022-09-23T11:13:59.938Z,101496.78
2022-09-23T11:16:40.072Z,101496.78
2022-09-23T11:19:26.556Z,101496.00
2022-09-23T11:22:10.440Z,101495.19
2022-09-23T11:25:11.557Z,101492.50
2022-09-23T11:28:00.166Z,101494.41
2022-09-23T11:30:36.475Z,101497.50
2022-09-23T11:33:16.166Z,101498.63
2022-09-23T11:35:47.909Z,101498.63
2022-09-23T11:38:20.072Z,101492.78
2022-09-23T11:40:52.286Z,101494.38
2022-09-23T11:43:21.182Z,101483.53
2022-09-23T11:45:53.340Z,101479.69
2022-09-23T11:48:24.999Z,101480.88
2022-09-23T11:50:58.603Z,101476.69
2022-09-23T11:53:36.181Z,101471.34
2022-09-23T11:56:10.571Z,101476.47
2022-09-23T11:58:45.459Z,101476.94
2022-09-23T12:01:35.828Z,101475.53
2022-09-23T12:04:18.415Z,101468.22
2022-09-23T12:06:52.409Z,101471.34
2022-09-23T12:09:47.330Z,101462.50
2022-09-23T12:12:25.050Z,101463.34
2022-09-23T12:14:59.792Z,101451.78
2022-09-23T12:17:43.256Z,101456.34
2022-09-23T12:20:26.997Z,101453.13
2022-09-23T12:23:02.665Z,101455.31
2022-09-23T12:25:40.481Z,101452.06
2022-09-23T12:28:15.009Z,101452.69
2022-09-23T12:30:42.569Z,101441.81
2022-09-23T12:33:16.247Z,101438.69
2022-09-23T12:35:45.242Z,101436.69
2022-09-23T12:38:13.722Z,101432.78
2022-09-23T12:40:40.477Z,101438.56
2022-09-23T12:43:16.517Z,101438.16
2022-09-23T12:45:43.172Z,101431.16
2022-09-23T12:48:46.469Z,101433.13
2022-09-23T12:51:16.595Z,101435.03
2022-09-23T12:53:58.712Z,101426.84
2022-09-23T12:56:57.124Z,101429.91
2022-09-23T12:59:27.462Z,101427.63
2022-09-23T13:01:55.132Z,101429.63
2022-09-23T13:04:51.668Z,101434.31
2022-09-23T13:07:23.503Z,101432.44
2022-09-23T13:09:52.585Z,101426.75
2022-09-23T13:12:25.357Z,101426.84
2022-09-23T13:14:55.625Z,101414.53
2022-09-23T13:17:25.843Z,101422.31
2022-09-23T13:19:59.842Z,101418.00
2022-09-23T13:22:56.351Z,101416.91
2022-09-23T13:25:25.490Z,101415.38
2022-09-23T13:27:56.237Z,101415.28
2022-09-23T13:30:26.590Z,101411.03
2022-09-23T13:33:02.706Z,101411.47
2022-09-23T13:35:34.436Z,101406.06
2022-09-23T13:38:09.985Z,101405.69
2022-09-23T13:40:37.367Z,101404.19
2022-09-23T13:43:08.861Z,101408.81
2022-09-23T13:45:40.746Z,101400.22
2022-09-23T13:48:11.151Z,101402.09
2022-09-23T13:50:39.293Z,101400.88
2022-09-23T13:53:08.665Z,101400.81
2022-09-23T13:55:37.210Z,101397.69
2022-09-23T13:58:05.732Z,101396.13
2022-09-23T14:00:34.910Z,101401.91
2022-09-23T14:03:03.684Z,101402.69
2022-09-23T14:05:35.458Z,101398.47
2022-09-23T14:08:02.496Z,101392.31
2022-09-23T14:10:29.147Z,101387.00
2022-09-23T14:12:56.661Z,101379.28
2022-09-23T14:15:23.481Z,101379.28
2022-09-23T14:17:52.548Z,101385.88
2022-09-23T14:20:22.095Z,101378.50
2022-09-23T14:22:48.657Z,101382.41
2022-09-23T14:25:17.626Z,101370.09
2022-09-23T14:27:44.844Z,101368.19
2022-09-23T14:30:15.181Z,101372.88
2022-09-23T14:32:42.095Z,101367.09
2022-09-23T14:35:20.940Z,101360.13
2022-09-23T14:37:51.035Z,101363.59
2022-09-23T14:40:19.977Z,101356.66
2022-09-23T14:42:49.861Z,101360.06
2022-09-23T14:45:20.296Z,101358.44
2022-09-23T14:47:50.370Z,101359.53
2022-09-23T14:50:21.309Z,101352.13
2022-09-23T14:52:49.226Z,101353.63
2022-09-23T14:55:16.612Z,101346.69
2022-09-23T14:57:43.191Z,101357.44
2022-09-23T15:00:16.698Z,101362.03
2022-09-23T15:02:45.432Z,101352.72
2022-09-23T15:05:15.828Z,101351.91
2022-09-23T15:07:47.952Z,101341.81
2022-09-23T15:10:18.979Z,101342.97
2022-09-23T15:12:46.850Z,101344.09
2022-09-23T15:15:14.694Z,101343.34
2022-09-23T15:17:41.345Z,101345.72
2022-09-23T15:20:17.639Z,101348.47
2022-09-23T15:22:47.181Z,101341.16
2022-09-23T15:25:18.129Z,101337.28
2022-09-23T15:27:57.464Z,101334.25
2022-09-23T15:30:24.390Z,101333.88
2022-09-23T15:32:51.073Z,101335.00
2022-09-23T15:35:19.569Z,101335.38
2022-09-23T15:37:50.339Z,101345.00
2022-09-23T15:40:22.675Z,101343.38
2022-09-23T15:42:50.273Z,101338.69
2022-09-23T15:45:16.594Z,101338.22
2022-09-23T15:47:43.160Z,101331.63
2022-09-23T15:50:12.362Z,101331.22
2022-09-23T15:52:39.069Z,101326.22
2022-09-23T15:55:14.727Z,101336.66
2022-09-23T15:57:41.236Z,101334.75
2022-09-23T16:00:11.409Z,101335.09
2022-09-23T16:02:39.466Z,101333.13
2022-09-23T16:05:06.577Z,101328.13
2022-09-23T16:07:33.227Z,101327.72
2022-09-23T16:09:59.706Z,101326.13
2022-09-23T16:12:27.596Z,101326.13
2022-09-23T16:14:54.068Z,101329.63
2022-09-23T16:17:20.562Z,101330.75
2022-09-23T16:19:47.058Z,101330.75
2022-09-23T16:22:15.227Z,101326.88
2022-09-23T16:24:41.806Z,101325.25
2022-09-23T16:27:11.766Z,101326.78
2022-09-23T16:29:39.624Z,101330.19
2022-09-23T16:32:06.148Z,101328.97
2022-09-23T16:34:32.686Z,101323.16
2022-09-23T16:36:59.158Z,101329.69
2022-09-23T16:39:25.789Z,101324.66
2022-09-23T16:41:52.272Z,101332.41
2022-09-23T16:44:18.764Z,101333.91
2022-09-23T16:46:46.594Z,101335.38
2022-09-23T16:49:13.105Z,101332.63
2022-09-23T16:51:39.870Z,101335.69
2022-09-23T16:54:09.100Z,101336.41
2022-09-23T16:56:37.006Z,101332.13
2022-09-23T16:59:05.091Z,101334.41
2022-09-23T17:01:31.862Z,101330.13
2022-09-23T17:03:59.897Z,101332.41
2022-09-23T17:06:26.403Z,101328.94
2022-09-23T17:08:53.293Z,101330.88
2022-09-23T17:11:20.029Z,101337.41
2022-09-23T17:13:46.900Z,101343.59
2022-09-23T17:16:23.452Z,101333.16
2022-09-23T17:18:49.977Z,101340.47
2022-09-23T17:21:17.809Z,101333.16
2022-09-23T17:23:44.293Z,101327.31
2022-09-23T17:26:10.914Z,101330.03
2022-09-23T17:28:37.426Z,101327.66
2022-09-23T17:31:06.090Z,101328.38
2022-09-23T17:33:33.992Z,101320.63
2022-09-23T17:36:06.306Z,101333.72
2022-09-23T17:38:34.938Z,101326.75
2022-09-23T17:41:02.278Z,101326.00
2022-09-23T17:43:28.792Z,101315.09
2022-09-23T17:45:57.375Z,101322.41
2022-09-23T17:48:24.284Z,101311.19
2022-09-23T17:50:54.842Z,101308.88
2022-09-23T17:53:21.589Z,101311.91
2022-09-23T17:55:56.594Z,101304.16
2022-09-23T17:58:24.895Z,101308.03
2022-09-23T18:00:51.525Z,101303.75
2022-09-23T18:03:18.072Z,101304.13
2022-09-23T18:05:44.562Z,101306.03
2022-09-23T18:08:11.038Z,101307.16
2022-09-23T18:10:37.517Z,101308.31
2022-09-23T18:13:05.415Z,101302.91
2022-09-23T18:15:35.258Z,101307.53
2022-09-23T18:18:01.817Z,101303.63
2022-09-23T18:20:28.530Z,101303.25
2022-09-23T18:22:55.065Z,101306.31
2022-09-23T18:25:38.084Z,101307.44
2022-09-23T18:28:07.213Z,101309.72
2022-09-23T18:30:33.733Z,101314.00
2022-09-23T18:33:00.357Z,101307.81
2022-09-23T18:35:26.828Z,101314.78
2022-09-23T18:37:53.345Z,101305.91
2022-09-23T18:40:19.872Z,101309.38
2022-09-23T18:42:46.437Z,101308.59
2022-09-23T18:45:14.337Z,101311.72
2022-09-23T18:47:40.828Z,101317.53
2022-09-23T18:50:10.614Z,101307.09
2022-09-23T18:52:37.086Z,101314.00
2022-09-23T18:55:04.172Z,101313.22
2022-09-23T18:57:30.630Z,101308.19
2022-09-23T18:59:57.122Z,101313.16
2022-09-23T19:02:24.988Z,101315.41
2022-09-23T19:04:51.473Z,101311.94
2022-09-23T19:07:17.961Z,101320.38
2022-09-23T19:09:44.436Z,101313.44
2022-09-23T19:12:10.917Z,101311.88
2022-09-23T19:14:37.425Z,101309.97
2022-09-23T19:17:03.906Z,101317.63
2022-09-23T19:19:31.712Z,101319.53
2022-09-23T19:21:58.182Z,101314.16
2022-09-23T19:24:24.741Z,101314.50
2022-09-23T19:26:53.940Z,101315.63
2022-09-23T19:29:20.719Z,101305.97
2022-09-23T19:31:48.544Z,101316.00
2022-09-23T19:34:17.498Z,101307.91
2022-09-23T19:36:47.024Z,101309.03
2022-09-23T19:39:16.305Z,101308.25
2022-09-23T19:41:42.968Z,101306.69
2022-09-23T19:44:09.523Z,101309.72
2022-09-23T19:46:38.165Z,101303.56
2022-09-23T19:49:06.036Z,101299.72
2022-09-23T19:51:33.457Z,101303.22
2022-09-23T19:54:01.196Z,101304.28
2022-09-23T19:56:27.668Z,101303.84
2022-09-23T19:58:54.304Z,101301.94
2022-09-23T20:01:21.833Z,101300.38
2022-09-23T20:03:48.665Z,101304.97
2022-09-23T20:06:16.565Z,101296.47
2022-09-23T20:08:43.873Z,101301.06
2022-09-23T20:11:14.289Z,101292.16
2022-09-23T20:13:42.838Z,101300.25
2022-09-23T20:16:10.078Z,101287.91
2022-09-23T20:18:37.285Z,101294.09
2022-09-23T20:21:04.039Z,101286.34
2022-09-23T20:23:30.513Z,101292.53
2022-09-23T20:25:57.242Z,101290.19
2022-09-23T20:28:25.059Z,101296.72
2022-09-23T20:30:51.544Z,101289.41
2022-09-23T20:33:18.035Z,101288.63
2022-09-23T20:35:50.634Z,101282.44
2022-09-23T20:38:17.112Z,101288.97
2022-09-23T20:40:43.632Z,101280.88
2022-09-23T20:43:10.148Z,101280.88
2022-09-23T20:45:37.963Z,101277.75
2022-09-23T20:48:04.645Z,101272.00
2022-09-23T20:50:31.124Z,101272.38
2022-09-23T20:52:57.618Z,101269.66
2022-09-23T20:55:24.110Z,101264.28
2022-09-23T20:57:50.641Z,101270.78
2022-09-23T21:00:17.114Z,101263.47
2022-09-23T21:02:45.029Z,101258.44
2022-09-23T21:05:11.521Z,101261.16
2022-09-23T21:07:38.008Z,101259.56
2022-09-23T21:10:05.911Z,101258.00
2022-09-23T21:12:32.433Z,101249.16
2022-09-23T21:14:58.909Z,101247.56
2022-09-23T21:17:25.366Z,101240.25
2022-09-23T21:19:53.194Z,101247.16
2022-09-23T21:22:19.655Z,101241.75
2022-09-23T21:25:25.897Z,101249.06
2022-09-23T21:27:32.606Z,101254.47
2022-09-23T21:29:59.085Z,101252.91
2022-09-23T21:32:25.554Z,101245.94
2022-09-23T21:34:54.574Z,101247.06
2022-09-23T21:37:21.036Z,101250.91
2022-09-23T21:39:47.533Z,101243.94
2022-09-23T21:42:14.034Z,101243.53
2022-09-23T21:44:40.723Z,101239.28
2022-09-23T21:47:07.302Z,101243.09
2022-09-23T21:49:33.886Z,101239.59
2022-09-23T21:52:02.172Z,101244.59
2022-09-23T21:54:28.670Z,101243.38
2022-09-23T21:56:55.129Z,101246.84
2022-09-23T21:59:21.581Z,101255.31
2022-09-23T22:01:53.229Z,101251.03
2022-09-23T22:04:20.832Z,101244.06
2022-09-23T22:06:47.599Z,101248.72
2022-09-23T22:09:17.723Z,101250.19
2022-09-23T22:11:44.485Z,101251.00
2022-09-23T22:14:12.523Z,101245.94
2022-09-23T22:16:39.646Z,101244.38
2022-09-23T22:19:06.564Z,101234.72
2022-09-23T22:21:35.345Z,101241.22
2022-09-23T22:24:03.801Z,101247.00
2022-09-23T22:26:34.968Z,101239.25
2022-09-23T22:29:01.739Z,101238.47
2022-09-23T22:31:28.263Z,101238.47
2022-09-23T22:33:54.798Z,101235.00
2022-09-23T22:36:21.298Z,101230.75
2022-09-23T22:38:47.906Z,101226.47
2022-09-23T22:41:14.370Z,101223.00
2022-09-23T22:43:42.205Z,101226.06
2022-09-23T22:46:08.698Z,101236.06
2022-09-23T22:48:35.255Z,101225.25
2022-09-23T22:51:03.949Z,101224.47
2022-09-23T22:53:30.462Z,101222.94
2022-09-23T22:55:57.818Z,101222.16
2022-09-23T22:58:32.283Z,101234.06
2022-09-23T23:01:00.585Z,101222.50
2022-09-23T23:03:27.159Z,101225.22
2022-09-23T23:05:53.678Z,101219.03
2022-09-23T23:08:20.162Z,101224.41
2022-09-23T23:10:46.654Z,101221.72
2022-09-23T23:13:13.117Z,101225.53
2022-09-23T23:15:40.305Z,101216.66
2022-09-23T23:18:08.189Z,101208.94
2022-09-23T23:20:34.674Z,101210.84
2022-09-23T23:23:01.553Z,101208.16
2022-09-23T23:25:28.369Z,101212.00
2022-09-23T23:27:54.939Z,101212.00
2022-09-23T23:30:21.855Z,101201.53
2022-09-23T23:32:48.399Z,101215.81
2022-09-23T23:35:16.513Z,101206.19
2022-09-23T23:37:43.036Z,101206.19
2022-09-23T23:40:10.552Z,101201.13
2022-09-23T23:42:37.094Z,101207.28
2022-09-23T23:45:04.452Z,101208.09
2022-09-23T23:47:30.753Z,101199.91
2022-09-23T23:49:57.206Z,101201.47
2022-09-23T23:52:25.045Z,101206.88
2022-09-23T23:54:51.518Z,101199.91
2022-09-23T23:57:18.001Z,101196.78
2022-09-23T23:59:44.498Z,101195.66
